Terminal Aerodrome Forecast
Issued by NWS Cleveland, OH

Home | Current Version | Previous Version | Graphics & Text | Print | Product List | Glossary On
Versions: 1 2 3 4 5 6 7 8 9 10 11 12 13 14 15 16
000
FTUS41 KCLE 260500
TAFTOL
TAF
KTOL 260527Z 2606/2706 03014KT P6SM -SN BKN050 OVC140
      TEMPO 2606/2608 4SM -SN BKN030
     FM260900 02012KT P6SM SCT045 OVC140
     FM261500 01009KT P6SM SCT045 BKN250
     FM262200 35010KT P6SM SCT120 BKN250
     FM270200 34004KT P6SM BKN120=

USA.gov is the U.S. government's official web portal to all federal, state and local government web resources and services.